createdAt,value
2022-11-24T00:00:51.858Z,97325.19
2022-11-24T00:03:58.034Z,97327.94
2022-11-24T00:07:00.757Z,97329.59
2022-11-24T00:10:04.353Z,97326.09
2022-11-24T00:13:06.930Z,97328.66
2022-11-24T00:16:18.697Z,97328.66
2022-11-24T00:19:21.591Z,97329.59
2022-11-24T00:22:24.749Z,97334.06
2022-11-24T00:25:27.325Z,97333.16
2022-11-24T00:28:30.343Z,97333.13
2022-11-24T00:31:35.355Z,97338.41
2022-11-24T00:34:38.649Z,97333.91
2022-11-24T00:37:41.271Z,97337.41
2022-11-24T00:40:45.570Z,97353.31
2022-11-24T00:43:48.446Z,97344.50
2022-11-24T00:46:51.402Z,97345.34
2022-11-24T00:49:54.179Z,97343.56
2022-11-24T00:52:56.969Z,97349.75
2022-11-24T00:55:59.552Z,97353.28
2022-11-24T00:59:02.454Z,97355.94
2022-11-24T01:02:05.070Z,97358.66
2022-11-24T01:05:08.630Z,97356.84
2022-11-24T01:08:11.947Z,97364.00
2022-11-24T01:11:23.547Z,97361.47
2022-11-24T01:14:26.411Z,97372.06
2022-11-24T01:17:29.472Z,97364.09
2022-11-24T01:20:32.596Z,97365.84
2022-11-24T01:23:35.849Z,97367.59
2022-11-24T01:26:38.917Z,97374.75
2022-11-24T01:29:41.761Z,97375.62
2022-11-24T01:32:44.354Z,97364.13
2022-11-24T01:35:47.222Z,97374.75
2022-11-24T01:38:50.332Z,97375.66
2022-11-24T01:41:53.529Z,97380.03
2022-11-24T01:45:31.688Z,97380.03
2022-11-24T01:48:40.704Z,97380.03
2022-11-24T01:51:47.623Z,97384.41
2022-11-24T01:54:55.120Z,97385.41
2022-11-24T01:58:07.282Z,97394.25
2022-11-24T02:01:10.243Z,97396.84
2022-11-24T02:04:15.801Z,97394.19
2022-11-24T02:07:18.990Z,97388.84
2022-11-24T02:10:22.005Z,97394.19
2022-11-24T02:13:25.133Z,97402.13
2022-11-24T02:16:27.713Z,97378.53
2022-11-24T02:19:39.619Z,97387.16
2022-11-24T02:23:09.773Z,97395.13
2022-11-24T02:26:16.070Z,97396.84
2022-11-24T02:29:20.509Z,97383.50
2022-11-24T02:32:23.421Z,97389.66
2022-11-24T02:35:27.338Z,97388.84
2022-11-24T02:38:31.990Z,97387.00
2022-11-24T02:41:34.709Z,97375.66
2022-11-24T02:44:41.076Z,97384.34
2022-11-24T02:47:43.697Z,97387.00
2022-11-24T02:50:46.649Z,97386.19
2022-11-24T02:53:49.441Z,97381.84
2022-11-24T02:56:52.540Z,97385.41
2022-11-24T02:59:55.053Z,97381.84
2022-11-24T03:02:58.242Z,97378.19
2022-11-24T03:06:01.193Z,97387.91
2022-11-24T03:09:04.341Z,97390.56
2022-11-24T03:12:07.129Z,97392.28
2022-11-24T03:15:10.682Z,97394.03
2022-11-24T03:18:13.234Z,97398.50
2022-11-24T03:21:16.294Z,97392.31
2022-11-24T03:24:18.849Z,97394.16
2022-11-24T03:27:21.759Z,97395.91
2022-11-24T03:30:24.279Z,97389.69
2022-11-24T03:33:27.135Z,97397.62
2022-11-24T03:36:29.680Z,97386.25
2022-11-24T03:39:32.624Z,97398.66
2022-11-24T03:42:35.248Z,97399.56
2022-11-24T03:45:46.153Z,97397.72
2022-11-24T03:48:49.290Z,97399.47
2022-11-24T03:51:52.033Z,97401.41
2022-11-24T03:54:54.615Z,97410.16
2022-11-24T03:57:57.544Z,97403.91
2022-11-24T04:01:00.095Z,97407.50
2022-11-24T04:04:03.281Z,97413.72
2022-11-24T04:07:05.847Z,97418.13
2022-11-24T04:10:09.084Z,97419.03
2022-11-24T04:13:14.427Z,97418.31
2022-11-24T04:16:17.393Z,97430.66
2022-11-24T04:19:19.973Z,97439.47
2022-11-24T04:22:23.101Z,97443.00
2022-11-24T04:25:25.631Z,97442.09
2022-11-24T04:28:28.939Z,97440.34
2022-11-24T04:31:31.858Z,97444.84
2022-11-24T04:34:35.847Z,97450.22
2022-11-24T04:37:38.705Z,97452.16
2022-11-24T04:40:41.612Z,97447.69
2022-11-24T04:43:44.404Z,97445.97
2022-11-24T04:46:47.461Z,97456.59
2022-11-24T04:49:50.520Z,97454.84
2022-11-24T04:52:53.358Z,97450.66
2022-11-24T04:55:55.876Z,97458.53
2022-11-24T04:59:01.620Z,97461.22
2022-11-24T05:02:09.165Z,97462.31
2022-11-24T05:05:12.109Z,97461.41
2022-11-24T05:08:14.705Z,97459.66
2022-11-24T05:11:18.116Z,97473.13
2022-11-24T05:14:20.656Z,97467.03
2022-11-24T05:17:23.542Z,97471.41
2022-11-24T05:20:26.314Z,97475.03
2022-11-24T05:23:29.308Z,97468.09
2022-11-24T05:26:31.793Z,97482.16
2022-11-24T05:29:34.645Z,97487.56
2022-11-24T05:32:37.224Z,97492.06
2022-11-24T05:35:40.470Z,97497.53
2022-11-24T05:38:43.211Z,97514.13
2022-11-24T05:41:46.404Z,97504.34
2022-11-24T05:44:48.936Z,97509.75
2022-11-24T05:47:51.788Z,97524.91
2022-11-24T05:50:55.809Z,97519.66
2022-11-24T05:53:58.903Z,97528.47
2022-11-24T05:57:01.407Z,97540.03
2022-11-24T06:00:06.937Z,97540.88
2022-11-24T06:03:14.783Z,97534.00
2022-11-24T06:06:17.755Z,97543.56
2022-11-24T06:09:20.418Z,97554.78
2022-11-24T06:12:23.342Z,97551.69
2022-11-24T06:15:25.979Z,97554.63
2022-11-24T06:18:28.714Z,97558.44
2022-11-24T06:21:31.900Z,97569.28
2022-11-24T06:24:35.000Z,97568.28
2022-11-24T06:27:37.787Z,97572.47
2022-11-24T06:30:40.783Z,97570.06
2022-11-24T06:33:43.444Z,97564.09
2022-11-24T06:36:47.035Z,97573.97
2022-11-24T06:39:49.633Z,97547.03
2022-11-24T06:42:52.722Z,97570.88
2022-11-24T06:45:55.978Z,97584.81
2022-11-24T06:49:00.020Z,97590.19
2022-11-24T06:52:02.747Z,97600.78
2022-11-24T06:55:06.264Z,97599.09
2022-11-24T06:58:09.077Z,97606.28
2022-11-24T07:01:16.978Z,97610.75
2022-11-24T07:04:20.132Z,97607.19
2022-11-24T07:07:23.098Z,97601.16
2022-11-24T07:10:25.971Z,97615.09
2022-11-24T07:13:28.987Z,97619.59
2022-11-24T07:16:32.092Z,97616.97
2022-11-24T07:19:35.009Z,97609.84
2022-11-24T07:22:37.651Z,97615.16
2022-11-24T07:25:40.782Z,97618.62
2022-11-24T07:28:43.403Z,97615.94
2022-11-24T07:31:46.425Z,97625.66
2022-11-24T07:34:49.021Z,97617.00
2022-11-24T07:37:57.478Z,97633.59
2022-11-24T07:41:04.876Z,97635.31
2022-11-24T07:44:07.825Z,97639.75
2022-11-24T07:47:10.475Z,97642.41
2022-11-24T07:50:13.703Z,97652.97
2022-11-24T07:53:16.747Z,97649.41
2022-11-24T07:56:19.709Z,97650.31
2022-11-24T07:59:22.305Z,97660.03
2022-11-24T08:02:25.485Z,97653.72
2022-11-24T08:05:28.379Z,97648.28
2022-11-24T08:08:33.437Z,97645.69
2022-11-24T08:11:36.808Z,97653.50
2022-11-24T08:14:39.401Z,97661.13
2022-11-24T08:17:42.205Z,97661.06
2022-11-24T08:20:44.794Z,97641.00
2022-11-24T08:23:47.741Z,97672.34
2022-11-24T08:26:50.260Z,97670.47
2022-11-24T08:29:53.369Z,97672.03
2022-11-24T08:32:56.035Z,97671.13
2022-11-24T08:36:10.046Z,97675.44
2022-11-24T08:39:12.796Z,97674.53
2022-11-24T08:42:16.093Z,97683.28
2022-11-24T08:45:21.393Z,97687.38
2022-11-24T08:48:25.478Z,97688.00
2022-11-24T08:51:29.047Z,97694.16
2022-11-24T08:54:32.798Z,97693.97
2022-11-24T08:57:35.773Z,97696.41
2022-11-24T09:00:40.809Z,97699.78
2022-11-24T09:03:49.963Z,97695.25
2022-11-24T09:06:53.056Z,97698.72
2022-11-24T09:09:55.714Z,97708.00
2022-11-24T09:12:58.599Z,97713.03
2022-11-24T09:16:06.476Z,97710.12
2022-11-24T09:19:10.205Z,97715.25
2022-11-24T09:22:12.926Z,97695.12
2022-11-24T09:25:15.887Z,97712.50
2022-11-24T09:28:18.434Z,97714.34
2022-11-24T09:31:24.727Z,97690.94
2022-11-24T09:34:27.705Z,97713.19
2022-11-24T09:37:33.002Z,97714.53
2022-11-24T09:40:35.801Z,97727.88
2022-11-24T09:43:40.850Z,97717.06
2022-11-24T09:47:02.332Z,97726.88
2022-11-24T09:50:14.111Z,97731.25
2022-11-24T09:53:32.722Z,97740.16
2022-11-24T09:56:38.756Z,97723.56
2022-11-24T09:59:42.383Z,97727.97
2022-11-24T10:02:48.613Z,97729.00
2022-11-24T10:05:52.502Z,97736.87
2022-11-24T10:09:32.342Z,97751.97
2022-11-24T10:12:53.721Z,97734.97
2022-11-24T10:16:41.184Z,97738.03
2022-11-24T10:20:14.437Z,97730.81
2022-11-24T10:23:42.010Z,97738.56
2022-11-24T10:26:52.429Z,97742.78
2022-11-24T10:29:55.564Z,97747.22
2022-11-24T10:33:01.234Z,97740.78
2022-11-24T10:36:08.040Z,97747.50
2022-11-24T10:39:20.917Z,97744.81
2022-11-24T10:42:33.670Z,97737.75
2022-11-24T10:45:37.928Z,97740.56
2022-11-24T10:48:57.657Z,97743.94
2022-11-24T10:52:12.971Z,97748.28
2022-11-24T10:55:15.589Z,97750.84
2022-11-24T10:58:31.673Z,97742.75
2022-11-24T11:01:38.596Z,97727.88
2022-11-24T11:04:41.453Z,97729.00
2022-11-24T11:07:44.133Z,97743.03
2022-11-24T11:10:49.440Z,97743.06
2022-11-24T11:14:06.038Z,97744.13
2022-11-24T11:17:33.414Z,97749.41
2022-11-24T11:20:36.780Z,97746.88
2022-11-24T11:23:40.418Z,97759.91
2022-11-24T11:26:43.447Z,97762.59
2022-11-24T11:36:56.297Z,97747.63
2022-11-24T11:39:59.072Z,97776.37
2022-11-24T11:43:26.049Z,97769.13
2022-11-24T11:46:30.989Z,97777.19
2022-11-24T11:49:35.501Z,97771.16
2022-11-24T11:52:44.375Z,97770.22
2022-11-24T11:56:03.638Z,97777.25
2022-11-24T11:59:26.766Z,97774.47
2022-11-24T12:02:29.768Z,97775.16
2022-11-24T12:05:51.225Z,97776.97
2022-11-24T12:09:20.437Z,97776.72
2022-11-24T12:12:29.631Z,97783.72
2022-11-24T12:15:46.292Z,97782.50
2022-11-24T12:18:59.617Z,97781.50
2022-11-24T12:22:02.183Z,97788.47
2022-11-24T12:25:23.268Z,97783.78
2022-11-24T12:28:50.080Z,97797.94
2022-11-24T12:32:31.274Z,97798.87
2022-11-24T12:35:43.785Z,97801.69
2022-11-24T12:39:06.913Z,97795.31
2022-11-24T12:42:31.161Z,97797.81
2022-11-24T12:45:46.599Z,97800.34
2022-11-24T12:49:15.042Z,97798.50
2022-11-24T12:52:25.455Z,97798.47
2022-11-24T12:55:29.325Z,97794.00
2022-11-24T12:58:51.929Z,97796.28
2022-11-24T13:02:15.027Z,97808.25
2022-11-24T13:05:37.757Z,97803.25
2022-11-24T13:08:41.115Z,97802.94
2022-11-24T13:11:51.928Z,97800.44
2022-11-24T13:14:54.573Z,97809.12
2022-11-24T13:18:08.567Z,97813.25
2022-11-24T13:21:51.033Z,97807.00
2022-11-24T13:25:21.717Z,97822.22
2022-11-24T13:29:06.039Z,97816.75
2022-11-24T13:32:16.804Z,97824.75
2022-11-24T13:35:19.634Z,97831.59
2022-11-24T13:38:43.967Z,97825.00
2022-11-24T13:41:49.271Z,97819.44
2022-11-24T13:44:54.147Z,97838.56
2022-11-24T13:47:56.693Z,97824.94
2022-11-24T13:51:01.228Z,97842.06
2022-11-24T13:54:04.226Z,97836.75
2022-11-24T13:57:35.550Z,97840.47
2022-11-24T14:01:05.215Z,97841.47
2022-11-24T14:04:30.970Z,97847.06
2022-11-24T14:07:36.528Z,97851.59
2022-11-24T14:10:41.490Z,97848.19
2022-11-24T14:13:45.058Z,97860.69
2022-11-24T14:16:47.925Z,97857.28
2022-11-24T14:19:57.844Z,97868.97
2022-11-24T14:23:00.801Z,97867.28
2022-11-24T14:26:03.354Z,97884.22
2022-11-24T14:29:11.234Z,97873.66
2022-11-24T14:32:16.888Z,97880.94
2022-11-24T14:35:22.672Z,97884.63
2022-11-24T14:38:25.785Z,97883.88
2022-11-24T14:41:28.775Z,97892.94
2022-11-24T14:44:34.520Z,97896.59
2022-11-24T14:47:45.038Z,97893.19
2022-11-24T14:50:47.782Z,97901.34
2022-11-24T14:53:54.324Z,97893.44
2022-11-24T14:57:04.185Z,97902.38
2022-11-24T15:00:17.236Z,97902.47
2022-11-24T15:03:19.867Z,97902.59
2022-11-24T15:06:22.632Z,97900.97
2022-11-24T15:09:30.633Z,97904.63
2022-11-24T15:12:41.288Z,97901.16
2022-11-24T15:15:49.439Z,97898.75
2022-11-24T15:18:58.528Z,97906.16
2022-11-24T15:22:01.498Z,97918.78
2022-11-24T15:25:31.434Z,97916.28
2022-11-24T15:28:33.942Z,97921.69
2022-11-24T15:31:37.119Z,97933.34
2022-11-24T15:34:39.882Z,97927.13
2022-11-24T15:37:42.692Z,97936.94
2022-11-24T15:40:47.515Z,97938.78
2022-11-24T15:43:50.392Z,97947.69
2022-11-24T15:46:55.300Z,97957.44
2022-11-24T15:49:58.308Z,97944.13
2022-11-24T15:53:01.022Z,97952.19
2022-11-24T15:56:06.863Z,97943.37
2022-11-24T15:59:19.949Z,97953.09
2022-11-24T16:02:24.028Z,97958.44
2022-11-24T16:05:26.894Z,97957.56
2022-11-24T16:08:29.576Z,97946.94
2022-11-24T16:11:32.413Z,97951.41
2022-11-24T16:14:35.868Z,97944.31
2022-11-24T16:17:39.143Z,97953.28
2022-11-24T16:20:41.940Z,97950.63
2022-11-24T16:23:45.644Z,97954.25
2022-11-24T16:26:48.277Z,97949.00
2022-11-24T16:29:51.819Z,97956.19
2022-11-24T16:32:54.990Z,97962.50
2022-11-24T16:35:57.804Z,97957.22
2022-11-24T16:39:00.552Z,97970.62
2022-11-24T16:42:04.368Z,97963.66
2022-11-24T16:45:07.541Z,97975.22
2022-11-24T16:48:10.404Z,97987.75
2022-11-24T16:51:13.649Z,97992.22
2022-11-24T16:54:16.736Z,97999.41
2022-11-24T16:57:19.426Z,98007.47
2022-11-24T17:00:22.661Z,98005.72
2022-11-24T17:03:25.536Z,98004.03
2022-11-24T17:06:28.938Z,98012.06
2022-11-24T17:09:33.866Z,97980.47
2022-11-24T17:12:41.009Z,98019.19
2022-11-24T17:15:48.398Z,98020.31
2022-11-24T17:18:54.501Z,98012.63
2022-11-24T17:21:57.241Z,98025.28
2022-11-24T17:25:00.084Z,98027.16
2022-11-24T17:28:02.716Z,98025.50
2022-11-24T17:31:07.287Z,98030.91
2022-11-24T17:34:10.810Z,98035.41
2022-11-24T17:37:13.807Z,98033.69
2022-11-24T17:40:34.369Z,98033.78
2022-11-24T17:43:37.575Z,98038.25
2022-11-24T17:46:40.758Z,98045.47
2022-11-24T17:49:43.891Z,98041.09
2022-11-24T17:52:47.090Z,98048.22
2022-11-24T17:55:50.080Z,98049.97
2022-11-24T17:59:00.179Z,98045.62
2022-11-24T18:02:03.358Z,98054.47
2022-11-24T18:05:06.883Z,98057.13
2022-11-24T18:08:09.601Z,98066.09
2022-11-24T18:11:23.627Z,98066.09
2022-11-24T18:14:28.605Z,98064.78
2022-11-24T18:17:31.583Z,98063.59
2022-11-24T18:20:34.444Z,98072.72
2022-11-24T18:23:37.888Z,98065.87
2022-11-24T18:26:42.217Z,98072.16
2022-11-24T18:29:46.396Z,98083.72
2022-11-24T18:32:49.193Z,98082.03
2022-11-24T18:36:00.058Z,98079.38
2022-11-24T18:39:07.975Z,98082.97
2022-11-24T18:42:11.240Z,98085.66
2022-11-24T18:45:14.043Z,98080.53
2022-11-24T18:48:17.271Z,98075.38
2022-11-24T18:51:19.733Z,98100.94
2022-11-24T18:54:22.509Z,98097.47
2022-11-24T18:57:25.278Z,98107.22
2022-11-24T19:00:28.763Z,98107.25
2022-11-24T19:03:31.481Z,98113.50
2022-11-24T19:06:36.879Z,98113.53
2022-11-24T19:09:39.727Z,98117.13
2022-11-24T19:12:44.841Z,98119.84
2022-11-24T19:15:48.560Z,98119.91
2022-11-24T19:18:54.359Z,98130.56
2022-11-24T19:21:57.128Z,98120.00
2022-11-24T19:25:00.339Z,98134.22
2022-11-24T19:28:03.140Z,98129.47
2022-11-24T19:31:08.841Z,98142.22
2022-11-24T19:34:11.812Z,98145.53
2022-11-24T19:37:15.091Z,98148.91
2022-11-24T19:40:18.578Z,98159.16
2022-11-24T19:43:21.811Z,98163.87
2022-11-24T19:46:27.216Z,98162.94
2022-11-24T19:49:32.454Z,98164.28
2022-11-24T19:52:35.598Z,98163.81
2022-11-24T19:55:38.708Z,98165.81
2022-11-24T19:58:42.225Z,98168.62
2022-11-24T20:01:45.267Z,98183.81
2022-11-24T20:04:48.462Z,98184.81
2022-11-24T20:07:51.445Z,98181.41
2022-11-24T20:10:55.034Z,98185.03
2022-11-24T20:13:57.876Z,98183.34
2022-11-24T20:17:01.097Z,98190.47
2022-11-24T20:20:04.504Z,98195.78
2022-11-24T20:23:07.817Z,98199.41
2022-11-24T20:26:16.328Z,98206.50
2022-11-24T20:29:20.281Z,98211.00
2022-11-24T20:32:23.166Z,98208.41
2022-11-24T20:35:26.290Z,98211.97
2022-11-24T20:38:29.751Z,98215.56
2022-11-24T20:41:34.752Z,98216.47
2022-11-24T20:44:37.751Z,98201.50
2022-11-24T20:47:40.957Z,98218.28
2022-11-24T20:50:48.302Z,98213.84
2022-11-24T20:53:56.858Z,98215.63
2022-11-24T20:56:59.738Z,98215.66
2022-11-24T21:00:03.219Z,98224.53
2022-11-24T21:03:07.135Z,98226.25
2022-11-24T21:06:10.976Z,98226.28
2022-11-24T21:09:13.735Z,98223.63
2022-11-24T21:12:17.417Z,98229.03
2022-11-24T21:15:20.014Z,98238.78
2022-11-24T21:18:23.829Z,98242.34
2022-11-24T21:21:33.381Z,98251.19
2022-11-24T21:24:36.674Z,98252.09
2022-11-24T21:27:39.634Z,98249.47
2022-11-24T21:30:42.649Z,98256.56
2022-11-24T21:33:50.349Z,98254.78
2022-11-24T21:36:53.218Z,98260.09
2022-11-24T21:39:55.669Z,98263.66
2022-11-24T21:42:59.569Z,98274.31
2022-11-24T21:46:03.768Z,98270.75
2022-11-24T21:49:06.736Z,98268.13
2022-11-24T21:52:09.305Z,98273.47
2022-11-24T21:55:12.278Z,98274.34
2022-11-24T21:58:15.063Z,98277.84
2022-11-24T22:01:19.613Z,98275.19
2022-11-24T22:04:22.751Z,98278.72
2022-11-24T22:07:25.331Z,98279.66
2022-11-24T22:10:29.616Z,98277.91
2022-11-24T22:13:32.228Z,98271.69
2022-11-24T22:16:35.651Z,98267.31
2022-11-24T22:19:38.234Z,98285.87
2022-11-24T22:22:41.174Z,98276.13
2022-11-24T22:25:43.781Z,98275.22
2022-11-24T22:28:49.943Z,98276.06
2022-11-24T22:31:54.327Z,98263.72
2022-11-24T22:34:57.336Z,98276.81
2022-11-24T22:37:59.952Z,98282.94
2022-11-24T22:41:25.224Z,98283.75
2022-11-24T22:44:28.612Z,98290.75
2022-11-24T22:47:31.517Z,98292.47
2022-11-24T22:50:36.824Z,98291.63
2022-11-24T22:53:40.373Z,98305.72
2022-11-24T22:56:43.123Z,98308.37
2022-11-24T22:59:46.372Z,98317.19
2022-11-24T23:02:48.986Z,98325.19
2022-11-24T23:05:51.911Z,98316.34
2022-11-24T23:08:55.175Z,98329.63
2022-11-24T23:11:58.017Z,98329.69
2022-11-24T23:15:00.668Z,98338.53
2022-11-24T23:18:03.555Z,98343.81
2022-11-24T23:21:11.189Z,98339.41
2022-11-24T23:24:14.037Z,98344.75
2022-11-24T23:27:16.515Z,98344.75
2022-11-24T23:30:19.764Z,98342.97
2022-11-24T23:33:22.278Z,98340.34
2022-11-24T23:36:25.644Z,98342.13
2022-11-24T23:39:28.630Z,98358.03
2022-11-24T23:42:31.522Z,98344.75
2022-11-24T23:45:34.008Z,98347.41
2022-11-24T23:48:37.799Z,98340.37
2022-11-24T23:51:42.096Z,98343.84
2022-11-24T23:54:45.431Z,98352.66
2022-11-24T23:57:47.957Z,98346.50
